Terminal Aerodrome Forecast
Issued by NWS Sioux Falls, SD

Home | Current Version | Previous Version | Graphics & Text | Print | Product List | Glossary On
Versions: 1 2 3 4 5 6 7 8 9 10 11 12 13
689
FTUS43 KFSD 061120
TAFFSD
TAF
KFSD 061120Z 0612/0712 28015G24KT P6SM SCT025
      TEMPO 0612/0614 -SN BKN025
     FM061400 28021G30KT P6SM BKN025
     FM061800 29019G28KT P6SM BKN035
     FM070200 28015G25KT P6SM SCT080=

USA.gov is the U.S. government's official web portal to all federal, state and local government web resources and services.